This is the latest recevied weather packets stored in our database for station/object M0CJS. If no packets are shown the sender has not sent any weather packets the latest 10 day(s).
| Time | Temp. | Humidity | Pressure | Rain* | Wind** | Luminosity | Snow |
|---|---|---|---|---|---|---|---|
| 1777343737 | 8.33° C | 94% | 1027.2 hPa | 0 mm | - | - | - |
| 1777338317 | 8.33° C | 93% | 1027.5 hPa | 0 mm | - | - | - |
| 1777336517 | 8.33° C | 92% | 1027.5 hPa | 0 mm | - | - | - |
| 1777335916 | 7.78° C | 93% | 1027.7 hPa | 0 mm | - | - | - |
| 1777333557 | 7.78° C | 94% | 1027.4 hPa | 0 mm | - | - | - |
| 1777329318 | 8.89° C | 94% | 1027.2 hPa | 0 mm | - | - | - |
| 1777328716 | 9.44° C | 94% | 1027.3 hPa | 0 mm | - | - | - |
| 1777328117 | 9.44° C | 94% | 1027.1 hPa | 0 mm | - | - | - |
| 1777323916 | 10.56° C | 94% | 1027 hPa | 0 mm | - | - | - |
| 1777321516 | 11.11° C | 94% | 1026.9 hPa | 0 mm | - | - | - |
| 1777316718 | 11.11° C | 94% | 1026.3 hPa | 1.52 mm | - | - | - |
| 1777315516 | 11.67° C | 93% | 1026.3 hPa | 7.87 mm | - | - | - |
| 1777311916 | 13.89° C | 81% | 1025.8 hPa | 1.52 mm | - | - | - |
| 1777310138 | 17.78° C | 66% | 1024.7 hPa | 0.25 mm | - | - | - |
| 1777308317 | 18.89° C | 54% | 1024.6 hPa | 0 mm | - | - | - |
| 1777305336 | 18.89° C | 52% | 1025 hPa | 0 mm | - | - | - |
| 1777301716 | 18.33° C | 59% | 1025.4 hPa | 0 mm | - | - | - |
| 1777301117 | 18.33° C | 60% | 1025.4 hPa | 0 mm | - | - | - |
| 1777296317 | 20.56° C | 57% | 1025.7 hPa | 0 mm | - | - | - |
| 1777295717 | 20.56° C | 55% | 1025.8 hPa | 0 mm | - | - | - |
| 1777293917 | 20.56° C | 54% | 1025.9 hPa | 0 mm | - | - | - |
| 1777290917 | 19.44° C | 58% | 1026.3 hPa | 0 mm | - | - | - |
| 1777290317 | 19.44° C | 60% | 1026.3 hPa | 0 mm | - | - | - |
| 1777289117 | 19.44° C | 58% | 1026.4 hPa | 0 mm | - | - | - |
| 1777287917 | 19.44° C | 60% | 1026.6 hPa | 0 mm | - | - | - |
* Rain latest hour (hover to see other rain measurements)
** Current wind speed in m/s (hover to see current wind gust speed)